createdAt,value
2022-11-03T00:02:11.705Z,1.25
2022-11-03T00:04:39.302Z,1.17
2022-11-03T00:07:06.680Z,1.30
2022-11-03T00:09:34.110Z,1.60
2022-11-03T00:12:01.912Z,1.70
2022-11-03T00:14:29.307Z,1.55
2022-11-03T00:16:56.705Z,1.63
2022-11-03T00:19:24.175Z,1.40
2022-11-03T00:21:52.662Z,1.85
2022-11-03T00:24:22.560Z,1.50
2022-11-03T00:26:50.217Z,1.73
2022-11-03T00:29:17.607Z,1.77
2022-11-03T00:31:45.284Z,1.85
2022-11-03T00:34:13.023Z,1.77
2022-11-03T00:36:42.806Z,2.28
2022-11-03T00:39:11.591Z,1.98
2022-11-03T00:41:39.529Z,2.08
2022-11-03T00:44:06.999Z,1.83
2022-11-03T00:46:35.549Z,1.88
2022-11-03T00:49:04.845Z,2.45
2022-11-03T00:51:34.336Z,1.60
2022-11-03T00:54:04.196Z,1.95
2022-11-03T00:56:37.719Z,1.65
2022-11-03T00:59:06.709Z,2.00
2022-11-03T01:01:46.631Z,1.90
2022-11-03T01:04:35.553Z,1.83
2022-11-03T01:07:04.336Z,1.80
2022-11-03T01:09:40.758Z,1.60
2022-11-03T01:12:19.209Z,1.55
2022-11-03T01:14:53.624Z,2.20
2022-11-03T01:17:26.655Z,1.50
2022-11-03T01:19:54.696Z,1.52
2022-11-03T01:22:23.477Z,1.80
2022-11-03T01:24:52.016Z,2.08
2022-11-03T01:27:22.434Z,2.50
2022-11-03T01:29:49.826Z,1.60
2022-11-03T01:32:17.171Z,2.55
2022-11-03T01:34:44.537Z,1.38
2022-11-03T01:37:11.868Z,1.85
2022-11-03T01:39:39.284Z,1.65
2022-11-03T01:42:06.688Z,1.10
2022-11-03T01:44:42.107Z,1.52
2022-11-03T01:47:19.998Z,1.85
2022-11-03T01:49:54.874Z,1.50
2022-11-03T01:52:37.508Z,1.17
2022-11-03T01:55:09.638Z,1.40
2022-11-03T01:58:02.202Z,2.05
2022-11-03T02:00:29.616Z,1.45
2022-11-03T02:02:57.087Z,1.50
2022-11-03T02:05:26.840Z,0.93
2022-11-03T02:08:02.312Z,1.15
2022-11-03T02:10:29.830Z,1.17
2022-11-03T02:12:57.969Z,1.35
2022-11-03T02:15:25.994Z,1.55
2022-11-03T02:17:55.192Z,1.10
2022-11-03T02:20:29.305Z,1.40
2022-11-03T02:23:10.016Z,1.38
2022-11-03T02:25:47.871Z,1.17
2022-11-03T02:28:21.534Z,0.90
2022-11-03T02:30:48.842Z,1.25
2022-11-03T02:33:30.566Z,1.50
2022-11-03T02:36:11.002Z,1.05
2022-11-03T02:38:47.089Z,1.23
2022-11-03T02:41:16.207Z,1.20
2022-11-03T02:43:45.988Z,1.60
2022-11-03T02:46:15.934Z,0.98
2022-11-03T02:48:43.496Z,1.40
2022-11-03T02:51:11.426Z,1.10
2022-11-03T02:53:44.658Z,0.98
2022-11-03T02:56:18.261Z,1.00
2022-11-03T02:59:03.040Z,0.98
2022-11-03T03:01:37.319Z,2.03
2022-11-03T03:04:09.411Z,1.10
2022-11-03T03:06:39.360Z,1.33
2022-11-03T03:09:12.768Z,1.23
2022-11-03T03:11:43.688Z,1.27
2022-11-03T03:17:21.636Z,1.60
2022-11-03T03:20:05.653Z,0.90
2022-11-03T03:22:46.294Z,0.90
2022-11-03T03:25:30.572Z,1.75
2022-11-03T03:28:04.609Z,1.50
2022-11-03T03:30:34.178Z,1.23
2022-11-03T03:33:04.530Z,1.45
2022-11-03T03:35:34.875Z,1.25
2022-11-03T03:38:07.937Z,1.42
2022-11-03T03:40:39.589Z,1.65
2022-11-03T03:43:10.141Z,1.55
2022-11-03T03:45:39.195Z,1.80
2022-11-03T03:48:07.350Z,2.03
2022-11-03T03:50:38.425Z,2.22
2022-11-03T03:53:09.617Z,2.03
2022-11-03T03:55:46.618Z,2.25
2022-11-03T03:58:15.613Z,1.70
2022-11-03T04:00:43.531Z,1.52
2022-11-03T04:03:22.080Z,2.15
2022-11-03T04:05:49.836Z,1.65
2022-11-03T04:08:18.014Z,1.83
2022-11-03T04:11:05.103Z,2.08
2022-11-03T04:13:52.016Z,3.03
2022-11-03T04:16:37.794Z,2.30
2022-11-03T04:19:23.754Z,2.15
2022-11-03T04:22:09.495Z,2.10
2022-11-03T04:24:36.891Z,2.15
2022-11-03T04:27:29.263Z,2.33
2022-11-03T04:30:19.227Z,2.42
2022-11-03T04:32:49.165Z,1.90
2022-11-03T04:35:19.460Z,1.90
2022-11-03T04:37:51.766Z,2.28
2022-11-03T04:40:19.349Z,1.65
2022-11-03T04:42:47.502Z,1.58
2022-11-03T04:45:29.027Z,1.60
2022-11-03T04:47:59.779Z,1.42
2022-11-03T04:50:27.254Z,1.75
2022-11-03T04:52:58.721Z,2.05
2022-11-03T04:55:27.102Z,1.45
2022-11-03T04:58:00.278Z,1.20
2022-11-03T05:00:27.693Z,1.27
2022-11-03T05:02:56.401Z,1.05
2022-11-03T05:05:26.340Z,1.40
2022-11-03T05:07:59.035Z,1.50
2022-11-03T05:10:28.605Z,3.47
2022-11-03T05:12:56.522Z,1.40
2022-11-03T05:15:38.044Z,1.90
2022-11-03T05:18:21.902Z,1.27
2022-11-03T05:20:56.248Z,0.80
2022-11-03T05:23:24.046Z,1.10
2022-11-03T05:25:53.847Z,1.10
2022-11-03T05:28:37.960Z,1.00
2022-11-03T05:31:25.411Z,1.40
2022-11-03T05:33:56.487Z,0.98
2022-11-03T05:36:26.396Z,0.80
2022-11-03T05:38:58.656Z,1.15
2022-11-03T05:41:29.309Z,1.00
2022-11-03T05:43:58.677Z,1.00
2022-11-03T05:46:34.961Z,1.02
2022-11-03T05:49:03.927Z,1.60
2022-11-03T05:51:43.330Z,1.20
2022-11-03T05:54:24.350Z,0.95
2022-11-03T05:56:51.778Z,1.10
2022-11-03T05:59:24.987Z,1.63
2022-11-03T06:01:54.165Z,1.13
2022-11-03T06:04:32.693Z,0.98
2022-11-03T06:07:18.516Z,0.80
2022-11-03T06:09:45.959Z,0.90
2022-11-03T06:12:17.512Z,0.82
2022-11-03T06:14:45.009Z,1.20
2022-11-03T06:17:28.619Z,0.80
2022-11-03T06:20:00.582Z,0.70
2022-11-03T06:22:38.411Z,0.63
2022-11-03T06:25:24.543Z,1.02
2022-11-03T06:27:53.348Z,1.48
2022-11-03T06:30:25.973Z,1.27
2022-11-03T06:32:57.979Z,1.90
2022-11-03T06:35:25.555Z,1.60
2022-11-03T06:37:53.895Z,1.50
2022-11-03T06:40:21.203Z,1.80
2022-11-03T06:42:48.594Z,1.58
2022-11-03T06:45:26.048Z,1.45
2022-11-03T06:47:54.573Z,1.23
2022-11-03T06:50:29.982Z,1.40
2022-11-03T06:52:59.571Z,1.35
2022-11-03T06:55:34.681Z,1.35
2022-11-03T06:58:22.445Z,1.02
2022-11-03T07:00:51.687Z,1.15
2022-11-03T07:03:33.266Z,1.40
2022-11-03T07:06:12.026Z,0.93
2022-11-03T07:08:44.710Z,1.50
2022-11-03T07:11:29.890Z,1.70
2022-11-03T07:14:18.630Z,1.70
2022-11-03T07:16:50.599Z,1.60
2022-11-03T07:19:30.797Z,1.52
2022-11-03T07:22:04.340Z,1.98
2022-11-03T07:24:34.819Z,1.60
2022-11-03T07:27:13.692Z,1.60
2022-11-03T07:29:41.850Z,1.98
2022-11-03T07:32:18.597Z,1.52
2022-11-03T07:34:47.376Z,1.65
2022-11-03T07:37:26.176Z,1.10
2022-11-03T07:39:53.703Z,2.00
2022-11-03T07:42:23.627Z,1.52
2022-11-03T07:44:52.017Z,1.70
2022-11-03T07:47:21.959Z,1.70
2022-11-03T07:49:49.329Z,1.80
2022-11-03T07:52:21.232Z,1.40
2022-11-03T07:54:50.785Z,1.98
2022-11-03T07:57:23.286Z,2.58
2022-11-03T08:00:08.908Z,1.50
2022-11-03T08:02:50.842Z,2.08
2022-11-03T08:07:50.570Z,2.30
2022-11-03T08:10:17.909Z,2.47
2022-11-03T08:12:45.354Z,2.60
2022-11-03T08:15:12.794Z,3.53
2022-11-03T08:17:40.135Z,13.25
2022-11-03T08:20:07.991Z,2.03
2022-11-03T08:22:35.393Z,2.58
2022-11-03T08:25:02.709Z,2.05
2022-11-03T08:27:30.093Z,2.63
2022-11-03T08:29:57.421Z,3.15
2022-11-03T08:32:24.798Z,2.40
2022-11-03T08:34:52.109Z,2.58
2022-11-03T08:37:19.481Z,2.75
2022-11-03T08:39:46.851Z,2.70
2022-11-03T08:42:14.220Z,2.45
2022-11-03T08:44:41.576Z,3.08
2022-11-03T08:47:08.937Z,3.10
2022-11-03T08:49:36.284Z,3.08
2022-11-03T08:52:03.749Z,4.75
2022-11-03T08:54:31.127Z,3.97
2022-11-03T08:56:58.532Z,4.38
2022-11-03T08:59:26.152Z,4.70
2022-11-03T09:01:53.670Z,5.93
2022-11-03T09:04:21.163Z,6.13
2022-11-03T09:06:48.738Z,6.00
2022-11-03T09:12:03.717Z,4.20
2022-11-03T09:14:31.094Z,5.28
2022-11-03T09:16:58.599Z,17.35
2022-11-03T09:19:26.110Z,5.32
2022-11-03T09:21:53.518Z,4.47
2022-11-03T09:24:20.911Z,4.18
2022-11-03T09:26:48.319Z,4.25
2022-11-03T09:29:15.826Z,4.45
2022-11-03T09:31:43.262Z,5.10
2022-11-03T09:34:11.405Z,4.45
2022-11-03T09:36:38.813Z,4.10
2022-11-03T09:39:06.332Z,4.20
2022-11-03T09:41:56.072Z,5.28
2022-11-03T09:44:22.147Z,5.38
2022-11-03T09:46:55.241Z,3.88
2022-11-03T09:49:26.360Z,3.63
2022-11-03T09:51:55.808Z,3.42
2022-11-03T09:54:23.379Z,2.97
2022-11-03T09:56:51.031Z,2.42
2022-11-03T09:59:20.855Z,3.03
2022-11-03T10:01:50.903Z,2.58
2022-11-03T10:04:25.102Z,3.00
2022-11-03T10:06:52.551Z,2.72
2022-11-03T10:09:20.753Z,2.40
2022-11-03T10:11:48.267Z,2.70
2022-11-03T10:14:17.921Z,2.10
2022-11-03T10:16:53.843Z,2.03
2022-11-03T10:19:21.410Z,1.92
2022-11-03T10:21:48.826Z,2.15
2022-11-03T10:24:16.604Z,2.78
2022-11-03T10:26:52.503Z,2.13
2022-11-03T10:29:24.551Z,2.63
2022-11-03T10:31:54.298Z,2.60
2022-11-03T10:34:27.735Z,2.58
2022-11-03T10:37:11.774Z,2.72
2022-11-03T10:39:39.159Z,2.33
2022-11-03T10:42:06.533Z,2.03
2022-11-03T10:44:34.051Z,6.18
2022-11-03T10:47:04.496Z,4.95
2022-11-03T10:49:36.562Z,2.67
2022-11-03T10:52:20.549Z,2.20
2022-11-03T10:54:49.324Z,3.83
2022-11-03T10:57:17.832Z,2.90
2022-11-03T10:59:47.140Z,4.20
2022-11-03T11:02:23.566Z,2.25
2022-11-03T11:05:01.414Z,1.40
2022-11-03T11:07:34.076Z,1.75
2022-11-03T11:10:19.464Z,2.30
2022-11-03T11:13:22.510Z,2.28
2022-11-03T11:15:51.111Z,2.60
2022-11-03T11:18:30.605Z,2.60
2022-11-03T11:20:58.453Z,3.15
2022-11-03T11:23:31.290Z,2.97
2022-11-03T11:26:10.667Z,3.47
2022-11-03T11:28:42.920Z,3.15
2022-11-03T11:31:32.728Z,3.65
2022-11-03T11:34:21.205Z,2.97
2022-11-03T11:36:54.374Z,5.22
2022-11-03T11:39:24.896Z,4.80
2022-11-03T11:42:12.383Z,4.80
2022-11-03T11:44:39.928Z,3.50
2022-11-03T11:47:30.681Z,3.25
2022-11-03T11:50:07.330Z,2.45
2022-11-03T11:52:55.597Z,2.80
2022-11-03T11:55:29.942Z,2.92
2022-11-03T11:58:00.340Z,3.20
2022-11-03T12:00:30.987Z,4.75
2022-11-03T12:03:00.004Z,3.58
2022-11-03T12:05:31.161Z,3.40
2022-11-03T12:07:58.814Z,3.13
2022-11-03T12:10:29.417Z,4.57
2022-11-03T12:12:59.117Z,4.05
2022-11-03T12:15:55.358Z,3.40
2022-11-03T12:18:40.870Z,4.53
2022-11-03T12:21:33.279Z,3.80
2022-11-03T12:24:00.650Z,4.50
2022-11-03T12:26:27.924Z,3.67
2022-11-03T12:28:55.576Z,4.00
2022-11-03T12:31:22.962Z,4.20
2022-11-03T12:33:50.406Z,3.70
2022-11-03T12:36:19.171Z,3.78
2022-11-03T12:38:46.582Z,4.15
2022-11-03T12:41:24.610Z,4.47
2022-11-03T12:43:53.242Z,5.18
2022-11-03T12:46:21.511Z,8.52
2022-11-03T12:48:49.664Z,5.95
2022-11-03T12:51:21.975Z,7.63
2022-11-03T12:53:49.710Z,6.50
2022-11-03T12:56:18.320Z,4.47
2022-11-03T12:58:45.739Z,3.80
2022-11-03T13:01:13.319Z,3.80
2022-11-03T13:03:40.910Z,2.60
2022-11-03T13:06:11.625Z,2.20
2022-11-03T13:08:38.986Z,2.00
2022-11-03T13:11:29.160Z,2.35
2022-11-03T13:13:56.799Z,2.55
2022-11-03T13:16:24.178Z,2.10
2022-11-03T13:18:51.682Z,2.25
2022-11-03T13:21:19.170Z,2.50
2022-11-03T13:23:46.569Z,2.58
2022-11-03T13:26:14.113Z,2.20
2022-11-03T13:28:41.467Z,3.53
2022-11-03T13:31:08.832Z,2.80
2022-11-03T13:33:36.138Z,2.05
2022-11-03T13:36:03.627Z,2.72
2022-11-03T13:38:31.047Z,3.55
2022-11-03T13:41:03.592Z,4.93
2022-11-03T13:43:34.592Z,7.30
2022-11-03T13:46:03.730Z,4.25
2022-11-03T13:49:33.058Z,6.75
2022-11-03T13:51:19.039Z,4.43
2022-11-03T14:07:12.291Z,2.22
2022-11-03T14:09:39.741Z,1.88
2022-11-03T14:12:25.850Z,2.15
2022-11-03T14:14:53.272Z,2.08
2022-11-03T14:17:20.628Z,2.33
2022-11-03T14:19:52.365Z,2.03
2022-11-03T14:22:21.658Z,2.75
2022-11-03T14:24:49.752Z,2.92
2022-11-03T14:27:18.518Z,2.05
2022-11-03T14:29:46.079Z,2.67
2022-11-03T14:32:13.575Z,4.45
2022-11-03T14:34:41.112Z,6.72
2022-11-03T14:37:09.100Z,3.05
2022-11-03T14:39:36.858Z,8.23
2022-11-03T14:42:06.585Z,2.80
2022-11-03T14:44:39.074Z,3.13
2022-11-03T14:47:09.089Z,3.08
2022-11-03T14:49:36.849Z,3.42
2022-11-03T14:52:07.066Z,2.60
2022-11-03T14:54:35.498Z,1.90
2022-11-03T14:57:04.077Z,1.88
2022-11-03T14:59:31.776Z,1.70
2022-11-03T15:01:59.625Z,7.95
2022-11-03T15:04:33.482Z,9.07
2022-11-03T15:07:01.247Z,3.40
2022-11-03T15:09:28.677Z,2.75
2022-11-03T15:11:56.118Z,4.03
2022-11-03T15:14:23.631Z,3.72
2022-11-03T15:16:51.069Z,3.75
2022-11-03T15:19:18.480Z,3.55
2022-11-03T15:21:45.911Z,3.30
2022-11-03T15:27:00.854Z,2.35
2022-11-03T15:29:28.316Z,2.08
2022-11-03T15:31:55.679Z,1.88
2022-11-03T15:34:23.139Z,2.13
2022-11-03T15:36:50.584Z,1.88
2022-11-03T15:39:17.985Z,2.10
2022-11-03T15:41:45.317Z,2.03
2022-11-03T15:44:12.641Z,2.45
2022-11-03T15:46:40.014Z,2.20
2022-11-03T15:49:07.347Z,1.83
2022-11-03T15:51:34.757Z,1.67
2022-11-03T15:54:02.605Z,1.70
2022-11-03T15:56:30.200Z,1.90
2022-11-03T15:58:57.550Z,1.58
2022-11-03T16:01:25.508Z,1.95
2022-11-03T16:03:53.020Z,2.58
2022-11-03T16:06:27.076Z,2.63
2022-11-03T16:09:08.122Z,2.15
2022-11-03T16:11:35.548Z,2.10
2022-11-03T16:14:02.917Z,2.38
2022-11-03T16:16:30.281Z,2.10
2022-11-03T16:18:57.637Z,1.88
2022-11-03T16:21:25.051Z,2.20
2022-11-03T16:23:52.915Z,2.45
2022-11-03T16:26:24.157Z,2.28
2022-11-03T16:28:51.739Z,2.58
2022-11-03T16:31:19.340Z,2.13
2022-11-03T16:33:46.780Z,2.17
2022-11-03T16:36:14.150Z,1.90
2022-11-03T16:38:41.478Z,2.35
2022-11-03T16:41:08.830Z,2.28
2022-11-03T16:43:36.195Z,2.20
2022-11-03T16:46:03.771Z,2.28
2022-11-03T16:48:31.126Z,2.70
2022-11-03T16:50:58.455Z,3.45
2022-11-03T16:53:26.101Z,4.97
2022-11-03T16:55:53.432Z,4.18
2022-11-03T16:58:20.961Z,3.42
2022-11-03T17:00:54.700Z,3.58
2022-11-03T17:03:22.115Z,3.58
2022-11-03T17:05:49.478Z,2.97
2022-11-03T17:08:46.755Z,3.78
2022-11-03T17:11:04.434Z,2.90
2022-11-03T17:13:31.761Z,2.70
2022-11-03T17:15:59.186Z,2.60
2022-11-03T17:18:26.542Z,3.60
2022-11-03T17:20:53.914Z,2.95
2022-11-03T17:23:21.321Z,3.40
2022-11-03T17:25:48.762Z,3.67
2022-11-03T17:28:18.778Z,2.72
2022-11-03T17:30:46.278Z,3.22
2022-11-03T17:33:17.263Z,3.78
2022-11-03T17:35:46.409Z,3.53
2022-11-03T17:38:18.555Z,3.10
2022-11-03T17:40:47.827Z,2.83
2022-11-03T17:43:23.474Z,2.47
2022-11-03T17:45:52.176Z,3.38
2022-11-03T17:48:20.204Z,3.03
2022-11-03T17:50:50.301Z,2.95
2022-11-03T17:53:24.526Z,2.90
2022-11-03T17:56:23.255Z,3.05
2022-11-03T17:58:46.217Z,2.90
2022-11-03T18:01:25.075Z,2.97
2022-11-03T18:03:53.121Z,2.50
2022-11-03T18:06:22.109Z,2.42
2022-11-03T18:08:49.636Z,3.28
2022-11-03T18:11:46.954Z,2.50
2022-11-03T18:14:15.317Z,2.70
2022-11-03T18:16:42.950Z,2.83
2022-11-03T18:19:15.323Z,2.90
2022-11-03T18:21:43.927Z,3.30
2022-11-03T18:24:13.501Z,3.30
2022-11-03T18:26:41.882Z,3.28
2022-11-03T18:29:09.660Z,3.97
2022-11-03T18:31:41.433Z,3.40
2022-11-03T18:34:19.855Z,2.83
2022-11-03T18:36:47.590Z,3.08
2022-11-03T18:39:22.464Z,3.45
2022-11-03T18:41:49.878Z,2.67
2022-11-03T18:44:19.541Z,3.20
2022-11-03T18:46:48.365Z,2.70
2022-11-03T18:49:16.253Z,3.20
2022-11-03T18:52:16.496Z,3.63
2022-11-03T18:54:47.211Z,3.83
2022-11-03T18:57:15.600Z,3.58
2022-11-03T18:59:44.761Z,4.40
2022-11-03T19:02:18.869Z,5.28
2022-11-03T19:04:46.820Z,4.50
2022-11-03T19:07:18.510Z,4.55
2022-11-03T19:09:46.304Z,5.00
2022-11-03T19:12:15.128Z,4.90
2022-11-03T19:14:45.119Z,4.90
2022-11-03T19:17:22.857Z,4.38
2022-11-03T19:19:53.627Z,4.95
2022-11-03T19:22:22.675Z,4.90
2022-11-03T19:24:50.083Z,4.22
2022-11-03T19:27:30.133Z,5.70
2022-11-03T19:29:59.538Z,5.75
2022-11-03T19:32:30.348Z,5.72
2022-11-03T19:35:01.767Z,5.55
2022-11-03T19:37:35.391Z,6.00
2022-11-03T19:40:08.860Z,6.05
2022-11-03T19:42:36.923Z,5.70
2022-11-03T19:45:07.003Z,6.25
2022-11-03T19:50:35.181Z,5.70
2022-11-03T19:53:05.777Z,6.45
2022-11-03T19:55:36.379Z,6.75
2022-11-03T19:58:21.142Z,6.60
2022-11-03T20:00:49.989Z,8.15
2022-11-03T20:03:17.883Z,6.57
2022-11-03T20:05:49.613Z,7.15
2022-11-03T20:08:24.271Z,6.57
2022-11-03T20:10:52.158Z,6.57
2022-11-03T20:13:22.341Z,7.63
2022-11-03T20:15:51.903Z,7.27
2022-11-03T20:18:20.885Z,8.25
2022-11-03T20:20:48.858Z,8.60
2022-11-03T20:23:25.591Z,10.32
2022-11-03T20:25:54.578Z,10.00
2022-11-03T20:28:25.583Z,10.80
2022-11-03T20:30:53.569Z,10.43
2022-11-03T20:33:23.287Z,9.93
2022-11-03T20:35:53.357Z,8.82
2022-11-03T20:38:21.786Z,9.60
2022-11-03T20:40:55.557Z,9.48
2022-11-03T20:43:26.514Z,11.15
2022-11-03T20:45:54.971Z,10.65
2022-11-03T20:48:23.184Z,12.65
2022-11-03T20:50:51.431Z,11.73
2022-11-03T20:53:23.561Z,10.45
2022-11-03T20:55:52.130Z,9.95
2022-11-03T20:58:19.869Z,9.70
2022-11-03T21:00:49.096Z,10.07
2022-11-03T21:03:45.270Z,9.60
2022-11-03T21:06:08.824Z,9.43
2022-11-03T21:08:36.226Z,9.63
2022-11-03T21:11:29.412Z,9.93
2022-11-03T21:14:35.092Z,10.65
2022-11-03T21:17:21.178Z,9.57
2022-11-03T21:20:07.826Z,9.60
2022-11-03T21:22:57.185Z,8.50
2022-11-03T21:25:25.309Z,9.65
2022-11-03T21:27:54.718Z,8.48
2022-11-03T21:30:22.492Z,9.82
2022-11-03T21:32:50.184Z,9.48
2022-11-03T21:35:22.069Z,9.77
2022-11-03T21:37:49.606Z,10.25
2022-11-03T21:40:17.647Z,10.68
2022-11-03T21:43:14.522Z,10.77
2022-11-03T21:45:42.045Z,11.07
2022-11-03T21:48:35.822Z,10.80
2022-11-03T21:51:03.462Z,10.98
2022-11-03T21:53:31.101Z,10.68
2022-11-03T21:55:58.441Z,10.63
2022-11-03T21:58:26.080Z,9.88
2022-11-03T22:00:53.616Z,11.02
2022-11-03T22:03:21.088Z,10.32
2022-11-03T22:05:48.624Z,10.95
2022-11-03T22:08:16.038Z,10.90
2022-11-03T22:10:43.449Z,8.82
2022-11-03T22:13:11.300Z,10.57
2022-11-03T22:15:57.923Z,10.20
2022-11-03T22:18:25.323Z,10.52
2022-11-03T22:21:11.595Z,9.65
2022-11-03T22:24:13.838Z,9.50
2022-11-03T22:26:56.164Z,7.95
2022-11-03T22:29:42.122Z,7.13
2022-11-03T22:32:14.794Z,6.85
2022-11-03T22:35:00.899Z,6.00
2022-11-03T22:40:14.011Z,6.18
2022-11-03T22:42:59.968Z,7.35
2022-11-03T22:45:45.888Z,9.02
2022-11-03T22:48:13.468Z,9.27
2022-11-03T22:50:40.839Z,11.32
2022-11-03T22:53:27.014Z,13.85
2022-11-03T22:55:54.321Z,13.20
2022-11-03T22:58:24.311Z,12.75
2022-11-03T23:00:54.007Z,13.65
2022-11-03T23:03:21.492Z,13.02
2022-11-03T23:05:48.893Z,11.35
2022-11-03T23:08:16.313Z,10.38
2022-11-03T23:10:43.786Z,10.15
2022-11-03T23:13:11.373Z,11.20
2022-11-03T23:15:43.618Z,10.77
2022-11-03T23:18:29.533Z,11.60
2022-11-03T23:21:08.886Z,10.73
2022-11-03T23:23:59.118Z,10.30
2022-11-03T23:26:27.372Z,11.38
2022-11-03T23:28:54.814Z,10.35
2022-11-03T23:31:22.372Z,10.45
2022-11-03T23:33:49.961Z,10.15
2022-11-03T23:36:17.826Z,10.57
2022-11-03T23:38:46.953Z,10.20
2022-11-03T23:41:17.209Z,10.40
2022-11-03T23:43:45.642Z,10.50
2022-11-03T23:46:34.611Z,10.50
2022-11-03T23:49:02.692Z,10.40
2022-11-03T23:51:31.970Z,10.07
2022-11-03T23:54:00.559Z,10.38
2022-11-03T23:56:51.844Z,10.52
2022-11-03T23:59:20.103Z,11.18
